Time;durP1;ratioP1;P1;durP2;ratioP2;P2;SDS_P1;SDS_P2;PMS_P1;PMS_P2;Temp;Humidity;BMP_temperature;BMP_pressure;BME280_temperature;BME280_humidity;BME280_pressure;Samples;Min_cycle;Max_cycle;Signal;HPM_P1;HPM_P2
2022/11/05 00:10:38;;;;;;;6.47;2.58;;;;;;;9.88;100.00;101397.44;6096646;23;20450;-54
2022/11/05 00:18:39;;;;;;;4.85;2.40;;;;;;;9.89;100.00;101406.44;6097275;23;20026;-52
2022/11/05 00:26:39;;;;;;;;;;;;;;;9.95;100.00;101402.72;6097356;23;20073;-52
2022/11/05 00:29:07;;;;;;;5.40;2.40;;;;;;;9.96;100.00;101402.47;6097074;23;19917;-53
2022/11/05 00:31:35;;;;;;;7.22;2.50;;;;;;;9.96;100.00;101407.09;6097996;23;20022;-53
2022/11/05 00:34:03;;;;;;;7.43;2.78;;;;;;;9.96;100.00;101401.66;6097477;23;20355;-51
2022/11/05 00:36:30;;;;;;;8.65;3.15;;;;;;;9.94;100.00;101404.63;6097445;23;20023;-51
2022/11/05 00:38:58;;;;;;;8.13;3.30;;;;;;;9.92;100.00;101412.19;6097347;23;20022;-53
2022/11/05 00:41:25;;;;;;;9.98;3.28;;;;;;;9.88;100.00;101412.94;6097429;23;20069;-53
2022/11/05 00:46:39;;;;;;;7.53;3.17;;;;;;;9.80;100.00;101417.72;6098036;23;20443;-52
2022/11/05 00:54:49;;;;;;;7.63;3.05;;;;;;;9.76;100.00;101416.56;6096582;23;20018;-53
2022/11/05 00:57:17;;;;;;;7.40;3.40;;;;;;;9.74;100.00;101426.91;6097246;23;20014;-49
2022/11/05 00:59:44;;;;;;;7.50;3.20;;;;;;;9.70;100.00;101422.19;6097437;23;20022;-52
2022/11/05 01:02:12;;;;;;;8.63;3.20;;;;;;;9.68;99.91;101422.44;6095707;23;20090;-50
2022/11/05 01:04:40;;;;;;;7.78;3.00;;;;;;;9.67;100.00;101428.13;6095910;23;20042;-54
2022/11/05 01:07:07;;;;;;;7.20;3.33;;;;;;;9.64;100.00;101426.72;6096929;23;20050;-52
2022/11/05 01:09:35;;;;;;;4.65;2.70;;;;;;;9.62;100.00;101426.16;6097353;23;20030;-54
2022/11/05 01:12:02;;;;;;;5.63;3.10;;;;;;;9.61;100.00;101435.38;6097388;23;20073;-55
2022/11/05 01:14:30;;;;;;;5.63;3.03;;;;;;;9.61;99.84;101443.53;6097221;23;20022;-55
2022/11/05 01:16:58;;;;;;;5.00;2.83;;;;;;;9.60;99.68;101450.06;6097948;23;20026;-54
2022/11/05 01:19:25;;;;;;;7.78;3.00;;;;;;;9.56;99.69;101451.63;6097536;23;20451;-56
2022/11/05 01:21:53;;;;;;;6.03;2.80;;;;;;;9.56;99.60;101443.47;6096686;23;20022;-54
2022/11/05 01:24:20;;;;;;;5.47;3.25;;;;;;;9.56;99.62;101454.34;6095583;23;20081;-52
2022/11/05 01:26:48;;;;;;;8.77;3.25;;;;;;;9.55;99.48;101452.69;6097061;23;20066;-53
2022/11/05 01:29:15;;;;;;;7.60;3.60;;;;;;;9.55;99.59;101460.84;6096964;23;20022;-51
2022/11/05 01:31:43;;;;;;;8.10;3.30;;;;;;;9.54;99.38;101461.91;6097604;23;20011;-57
2022/11/05 01:34:10;;;;;;;7.30;3.53;;;;;;;9.53;99.52;101465.72;6097352;23;20022;-52
2022/11/05 01:36:38;;;;;;;8.68;3.10;;;;;;;9.52;99.23;101464.06;6095560;23;20085;-55
2022/11/05 01:39:06;;;;;;;6.57;3.25;;;;;;;9.51;99.12;101470.56;6096528;23;20050;-50
2022/11/05 01:41:33;;;;;;;8.77;3.33;;;;;;;9.51;99.29;101465.13;6097081;23;20015;-53
2022/11/05 01:44:02;;;;;;;8.18;3.78;;;;;;;9.51;99.17;101476.84;6097059;23;20018;-51
2022/11/05 01:46:34;;;;;;;7.63;3.20;;;;;;;9.49;99.17;101468.09;6097403;23;20453;-49
2022/11/05 01:49:28;;;;;;;6.63;3.15;;;;;;;9.49;99.31;101478.16;6096321;23;20019;-53
2022/11/05 01:51:59;;;;;;;4.80;2.92;;;;;;;9.47;99.38;101477.56;6096647;23;20022;-55
2022/11/05 01:54:30;;;;;;;7.35;3.33;;;;;;;9.45;99.45;101479.69;6097418;23;20016;-52
2022/11/05 01:57:05;;;;;;;7.07;3.35;;;;;;;9.44;99.64;101472.63;6097042;23;20347;-54
2022/11/05 01:59:44;;;;;;;9.88;4.07;;;;;;;9.42;99.41;101472.03;6095766;23;20018;-52
2022/11/05 02:02:12;;;;;;;11.60;4.03;;;;;;;9.39;99.94;101470.63;6070530;23;20018;-54
2022/11/05 02:04:52;;;;;;;9.63;3.70;;;;;;;9.39;99.50;101473.34;6095458;23;20026;-54
2022/11/05 02:07:21;;;;;;;10.18;3.88;;;;;;;9.40;99.50;101475.00;6097467;23;20026;-53
2022/11/05 02:10:00;;;;;;;9.63;3.80;;;;;;;9.41;99.59;101475.84;6096142;23;20018;-52
2022/11/05 02:12:29;;;;;;;6.95;3.30;;;;;;;9.39;99.51;101468.72;6095059;23;20450;-54
2022/11/05 02:14:57;;;;;;;7.88;3.60;;;;;;;9.38;99.58;101455.41;6096820;23;20077;-53
2022/11/05 02:17:40;;;;;;;10.70;4.00;;;;;;;9.38;99.35;101460.84;6096339;23;20078;-54
2022/11/05 02:20:22;;;;;;;10.30;4.10;;;;;;;9.35;99.25;101464.84;6096889;23;20102;-52
2022/11/05 02:23:27;;;;;;;10.05;3.80;;;;;;;9.35;99.52;101459.41;6096712;23;20042;-52
2022/11/05 02:26:12;;;;;;;10.45;3.60;;;;;;;9.34;99.50;101459.66;6096829;23;20066;-54
2022/11/05 02:29:08;;;;;;;7.75;3.97;;;;;;;9.34;99.56;101457.75;6096721;23;20030;-52
2022/11/05 02:31:35;;;;;;;6.38;3.30;;;;;;;9.32;99.50;101459.91;6096695;23;20054;-55
2022/11/05 02:34:21;;;;;;;9.13;3.58;;;;;;;9.31;99.20;101457.44;6096637;23;20026;-53
2022/11/05 02:37:06;;;;;;;11.90;3.55;;;;;;;9.28;99.40;101456.00;6095867;23;20022;-54
2022/11/05 02:39:40;;;;;;;7.93;3.72;;;;;;;9.25;99.56;101451.06;6095685;23;20470;-55
2022/11/05 02:42:29;;;;;;;7.72;3.33;;;;;;;9.23;99.15;101442.31;6097233;23;20036;-54
2022/11/05 02:45:16;;;;;;;8.05;3.65;;;;;;;9.22;99.49;101442.59;6095913;23;20070;-53
2022/11/05 02:48:22;;;;;;;8.35;3.28;;;;;;;9.20;99.62;101448.25;6096328;23;20074;-52
2022/11/05 02:51:34;;;;;;;7.55;3.28;;;;;;;9.20;99.41;101434.66;6071663;23;20022;-53
2022/11/05 02:54:28;;;;;;;9.48;3.30;;;;;;;9.18;99.17;101453.09;6087642;23;20391;-51
2022/11/05 02:56:56;;;;;;;5.68;2.80;;;;;;;9.16;99.17;101449.78;6097074;23;20082;-55
2022/11/05 02:59:24;;;;;;;7.93;3.42;;;;;;;9.13;99.07;101455.72;6096511;23;20077;-50
2022/11/05 03:01:52;;;;;;;9.80;3.45;;;;;;;9.10;99.38;101454.31;6095979;23;20471;-50
2022/11/05 03:04:22;;;;;;;7.38;3.03;;;;;;;9.07;99.25;101451.28;6094912;23;20018;-50
2022/11/05 03:07:23;;;;;;;9.88;3.20;;;;;;;9.05;99.32;101446.06;6095415;23;20026;-54
2022/11/05 03:10:09;;;;;;;7.90;3.45;;;;;;;9.06;99.38;101446.88;6096654;23;20042;-53
2022/11/05 03:13:00;;;;;;;6.75;3.13;;;;;;;9.07;99.45;101437.69;6097847;23;20070;-53
2022/11/05 03:15:36;;;;;;;6.72;3.25;;;;;;;9.06;98.97;101446.88;6096708;23;20070;-54
2022/11/05 03:18:10;;;;;;;6.93;3.17;;;;;;;9.05;98.75;101447.97;6098929;23;20026;-52
2022/11/05 03:20:58;;;;;;;7.03;3.17;;;;;;;9.02;98.85;101443.84;6096476;23;20015;-52
2022/11/05 03:23:45;;;;;;;7.30;3.25;;;;;;;9.00;98.43;101453.31;6097819;23;20022;-52
2022/11/05 03:26:24;;;;;;;7.35;3.08;;;;;;;8.98;98.44;101450.00;6097264;23;20033;-52
2022/11/05 03:29:12;;;;;;;5.25;3.10;;;;;;;8.94;98.23;101453.19;6098443;23;20022;-52
2022/11/05 03:31:40;;;;;;;7.93;3.38;;;;;;;8.93;98.65;101454.25;6096272;23;20324;-56
2022/11/05 03:34:08;;;;;;;5.60;2.70;;;;;;;8.93;98.52;101456.16;6096615;23;20018;-57
2022/11/05 03:36:45;;;;;;;10.80;4.28;;;;;;;8.93;98.73;101464.31;6096560;23;20026;-55
2022/11/05 03:39:30;;;;;;;6.07;3.10;;;;;;;8.95;98.34;101468.44;6097370;23;20054;-53
2022/11/05 03:41:59;;;;;;;7.25;2.80;;;;;;;8.94;98.37;101464.06;6096545;23;20074;-53
2022/11/05 03:44:30;;;;;;;7.88;3.33;;;;;;;8.95;98.16;101464.91;6098009;23;20082;-56
2022/11/05 03:47:03;;;;;;;8.30;3.33;;;;;;;8.99;98.35;101465.22;6098460;23;20022;-56
2022/11/05 03:50:00;;;;;;;5.60;2.92;;;;;;;9.01;97.44;101460.38;6096667;23;20019;-54
2022/11/05 03:52:32;;;;;;;5.70;3.08;;;;;;;9.00;97.33;101461.47;6096127;23;20019;-54
2022/11/05 03:55:00;;;;;;;7.65;3.53;;;;;;;9.00;97.30;101464.19;6096705;23;20042;-56
2022/11/05 03:57:33;;;;;;;7.53;3.17;;;;;;;8.99;97.08;101462.50;6096754;23;20025;-55
2022/11/05 04:00:01;;;;;;;8.43;3.22;;;;;;;8.97;96.91;101465.47;6073007;23;20029;-53
2022/11/05 04:02:38;;;;;;;6.97;3.28;;;;;;;8.94;97.06;101472.22;6096724;23;20440;-52
2022/11/05 04:05:06;;;;;;;7.90;3.25;;;;;;;8.95;96.88;101478.50;6097869;23;20022;-54
2022/11/05 04:13:23;;;;;;;9.52;3.45;;;;;;;8.79;96.42;101473.81;6098262;23;20023;-53
2022/11/05 04:18:38;;;;;;;7.18;3.38;;;;;;;8.71;96.85;101473.13;6098499;23;20050;-55
2022/11/05 04:24:08;;;;;;;7.93;3.33;;;;;;;8.70;97.17;101481.50;6098009;23;20015;-50
2022/11/05 04:26:42;;;;;;;8.25;3.35;;;;;;;8.69;96.90;101485.28;6098970;23;20439;-51
2022/11/05 04:31:56;;;;;;;7.53;3.33;;;;;;;8.76;96.94;101496.03;6098215;23;20078;-54
2022/11/05 04:34:24;;;;;;;7.45;3.20;;;;;;;8.74;96.76;101479.97;6097679;23;20085;-54
2022/11/05 04:36:52;;;;;;;7.18;3.33;;;;;;;8.71;96.12;101488.59;6097332;23;20084;-52
2022/11/05 04:39:20;;;;;;;5.97;3.22;;;;;;;8.68;95.81;101489.91;6097269;23;20022;-55
2022/11/05 04:41:48;;;;;;;6.47;3.35;;;;;;;8.67;96.14;101498.28;6098011;23;20451;-52
2022/11/05 04:44:16;;;;;;;8.57;3.25;;;;;;;8.65;96.43;101494.97;6097596;23;20018;-55
2022/11/05 04:46:43;;;;;;;8.82;3.60;;;;;;;8.60;96.09;101492.97;6097755;23;20096;-54
2022/11/05 04:49:11;;;;;;;7.55;3.50;;;;;;;8.57;96.28;101498.06;6097795;23;20069;-49
2022/11/05 04:51:38;;;;;;;9.95;3.72;;;;;;;8.56;96.66;101502.66;6097581;23;20015;-52
2022/11/05 04:54:06;;;;;;;8.95;3.80;;;;;;;8.53;96.73;101503.13;6096922;23;20023;-53
2022/11/05 04:56:33;;;;;;;7.43;3.80;;;;;;;8.51;96.35;101508.81;6096575;23;20022;-53
2022/11/05 04:59:01;;;;;;;9.55;3.83;;;;;;;8.52;96.53;101501.50;6097937;23;20015;-54
2022/11/05 05:01:29;;;;;;;10.05;3.88;;;;;;;8.49;96.90;101499.22;6095512;23;20026;-52
2022/11/05 05:03:57;;;;;;;9.55;4.20;;;;;;;8.44;96.73;101501.84;6095906;23;20033;-52
2022/11/05 05:06:24;;;;;;;9.40;4.20;;;;;;;8.41;97.26;101507.75;6095676;23;20081;-53
2022/11/05 05:08:52;;;;;;;11.27;4.40;;;;;;;8.35;96.79;101509.50;6097510;23;20077;-54
2022/11/05 05:11:21;;;;;;;9.77;4.78;;;;;;;8.29;96.83;101516.69;6097307;23;20018;-51
2022/11/05 05:13:48;;;;;;;10.00;4.50;;;;;;;8.36;97.08;101521.19;6094874;23;20384;-50
2022/11/05 05:16:24;;;;;;;8.70;3.90;;;;;;;8.39;96.77;101524.22;6094421;23;20325;-55
2022/11/05 05:18:52;;;;;;;8.48;3.53;;;;;;;8.41;97.03;101522.16;6093833;23;20022;-50
2022/11/05 05:21:40;;;;;;;10.80;4.13;;;;;;;8.43;96.03;101524.63;6096473;23;20077;-53
2022/11/05 05:24:11;;;;;;;11.15;4.38;;;;;;;8.40;96.62;101525.94;6096810;23;20062;-52
2022/11/05 05:26:41;;;;;;;10.27;4.60;;;;;;;8.40;96.23;101525.94;6096063;23;20030;-53
2022/11/05 05:29:10;;;;;;;10.25;4.40;;;;;;;8.41;96.16;101527.56;6098474;23;20019;-51
2022/11/05 05:31:38;;;;;;;10.15;4.63;;;;;;;8.42;96.66;101533.81;6097757;23;20074;-55
2022/11/05 05:34:06;;;;;;;9.13;4.05;;;;;;;8.43;96.24;101528.16;6096714;23;20018;-56
2022/11/05 05:36:34;;;;;;;10.52;4.13;;;;;;;8.43;95.94;101525.44;6097244;23;20065;-54
2022/11/05 05:39:05;;;;;;;8.45;4.50;;;;;;;8.43;96.13;101525.44;6098090;23;20014;-55
2022/11/05 05:41:33;;;;;;;9.10;4.03;;;;;;;8.41;96.12;101526.75;6096878;23;20028;-56
2022/11/05 05:44:00;;;;;;;14.43;4.43;;;;;;;8.39;96.03;101524.22;6099501;23;20066;-54
2022/11/05 05:46:28;;;;;;;8.95;4.47;;;;;;;8.38;95.48;101525.31;6099528;23;20031;-57
2022/11/05 05:48:55;;;;;;;7.35;3.92;;;;;;;8.37;95.91;101523.66;6100302;23;20074;-55
2022/11/05 05:51:23;;;;;;;10.88;4.60;;;;;;;8.33;96.12;101519.75;6099804;23;20015;-55
2022/11/05 05:53:52;;;;;;;11.55;4.75;;;;;;;8.31;95.90;101535.47;6100327;23;20070;-54
2022/11/05 05:56:20;;;;;;;9.32;4.70;;;;;;;8.20;95.27;101550.69;6099740;23;20026;-55
2022/11/05 05:58:48;;;;;;;11.15;4.78;;;;;;;8.20;96.13;101547.13;6098568;23;20025;-54
2022/11/05 06:01:17;;;;;;;9.88;4.80;;;;;;;8.23;96.41;101542.06;6098582;23;20015;-56
2022/11/05 06:03:47;;;;;;;10.23;5.45;;;;;;;8.24;96.22;101543.72;6098809;23;20053;-57
2022/11/05 06:06:19;;;;;;;13.68;5.78;;;;;;;8.25;95.95;101539.09;6097260;23;20030;-54
2022/11/05 06:08:48;;;;;;;10.80;5.32;;;;;;;8.26;96.46;101532.63;6098116;23;20455;-54
2022/11/05 06:11:15;;;;;;;13.27;4.93;;;;;;;8.28;95.32;101533.22;6098750;23;20435;-53
2022/11/05 06:13:43;;;;;;;11.13;4.88;;;;;;;8.25;95.18;101533.66;6097597;23;20046;-54
2022/11/05 06:16:11;;;;;;;11.25;4.72;;;;;;;8.22;95.02;101534.16;6099808;23;20097;-52
2022/11/05 06:18:38;;;;;;;10.32;4.72;;;;;;;8.21;95.28;101548.78;6099659;23;20018;-52
2022/11/05 06:21:09;;;;;;;10.52;4.70;;;;;;;8.18;95.04;101535.66;6100523;23;20025;-51
2022/11/05 06:23:38;;;;;;;12.65;5.05;;;;;;;8.13;95.86;101540.97;6098956;23;20104;-53
2022/11/05 06:26:08;;;;;;;10.95;5.35;;;;;;;8.02;96.66;101545.34;6101085;23;20026;-52
2022/11/05 06:28:36;;;;;;;9.35;4.65;;;;;;;8.00;96.40;101548.28;6098417;23;20504;-52
2022/11/05 06:31:04;;;;;;;13.18;5.57;;;;;;;8.02;96.34;101539.91;6098193;23;20026;-52
2022/11/05 06:33:32;;;;;;;12.43;5.28;;;;;;;7.99;96.02;101548.53;6097044;23;20074;-52
2022/11/05 06:36:00;;;;;;;13.88;5.97;;;;;;;7.96;97.00;101557.09;6097684;23;20022;-50
2022/11/05 06:38:30;;;;;;;11.52;5.53;;;;;;;7.94;96.82;101551.94;6098621;23;20018;-53
2022/11/05 06:40:58;;;;;;;12.82;5.47;;;;;;;7.94;96.33;101560.06;6099452;23;20022;-53
2022/11/05 06:43:27;;;;;;;12.02;4.90;;;;;;;7.96;96.91;101549.81;6099883;23;20046;-56
2022/11/05 06:45:55;;;;;;;12.27;5.50;;;;;;;7.96;96.47;101557.97;6103642;23;20026;-54
2022/11/05 06:48:24;;;;;;;11.07;5.47;;;;;;;8.00;97.56;101558.31;6103922;23;20022;-52
2022/11/05 06:50:52;;;;;;;12.02;5.80;;;;;;;8.03;96.10;101564.13;6098356;23;20472;-54
2022/11/05 06:53:19;;;;;;;11.63;5.38;;;;;;;8.00;95.74;101561.84;6098789;23;20018;-52
2022/11/05 06:55:47;;;;;;;11.55;5.47;;;;;;;7.96;95.60;101563.38;6098102;23;20019;-54
2022/11/05 06:58:15;;;;;;;11.80;5.35;;;;;;;7.93;95.78;101554.88;6098318;23;20077;-51
2022/11/05 07:00:42;;;;;;;13.55;5.70;;;;;;;7.96;96.58;101560.69;6096826;23;20022;-52
2022/11/05 07:03:11;;;;;;;11.23;5.30;;;;;;;7.98;96.91;101558.53;6098777;23;20380;-52
2022/11/05 07:05:45;;;;;;;13.10;5.65;;;;;;;8.02;96.15;101564.34;6098355;23;20351;-52
2022/11/05 07:08:13;;;;;;;12.25;5.40;;;;;;;8.04;96.38;101571.19;6098259;23;20022;-50
2022/11/05 07:10:40;;;;;;;10.15;5.50;;;;;;;8.07;96.25;101570.72;6096847;23;20050;-51
2022/11/05 07:13:08;;;;;;;14.63;5.72;;;;;;;8.07;95.80;101570.72;6098541;23;20029;-50
2022/11/05 07:15:36;;;;;;;10.35;5.13;;;;;;;8.07;95.38;101575.31;6098081;23;20053;-52
2022/11/05 07:18:06;;;;;;;12.07;5.00;;;;;;;8.06;95.49;101579.09;6098161;23;20139;-51
2022/11/05 07:20:34;;;;;;;12.27;5.15;;;;;;;8.05;95.92;101572.81;6096722;23;20467;-51
2022/11/05 07:23:03;;;;;;;10.73;5.22;;;;;;;8.06;95.89;101579.91;6096733;23;20018;-52
2022/11/05 07:25:31;;;;;;;11.70;5.18;;;;;;;8.08;95.28;101582.38;6097879;23;20018;-53
2022/11/05 07:27:59;;;;;;;10.20;5.50;;;;;;;8.06;95.09;101595.38;6096711;23;20018;-50
2022/11/05 07:30:27;;;;;;;12.80;5.22;;;;;;;8.05;95.81;101583.69;6098426;23;20022;-54
2022/11/05 07:32:55;;;;;;;9.63;4.90;;;;;;;8.01;96.06;101584.38;6098519;23;20507;-54
2022/11/05 07:35:23;;;;;;;13.68;5.85;;;;;;;7.96;95.91;101590.53;6096884;23;20065;-52
2022/11/05 07:37:52;;;;;;;12.10;5.68;;;;;;;7.95;97.02;101594.28;6098586;23;20037;-54
2022/11/05 07:40:21;;;;;;;10.75;5.65;;;;;;;7.94;96.64;101592.63;6096625;23;20108;-54
2022/11/05 07:42:55;;;;;;;13.63;5.93;;;;;;;7.97;97.41;101596.78;6097763;23;20022;-53
2022/11/05 07:45:23;;;;;;;10.27;6.00;;;;;;;7.93;96.76;101599.09;6097828;23;20022;-51
2022/11/05 07:47:53;;;;;;;11.88;5.60;;;;;;;7.91;97.17;101601.22;6071141;23;20089;-52
2022/11/05 07:50:22;;;;;;;11.60;5.65;;;;;;;7.88;97.38;101605.22;6095925;23;20022;-56
2022/11/05 07:52:50;;;;;;;14.10;5.40;;;;;;;7.90;97.89;101596.88;6072422;23;20022;-53
2022/11/05 07:55:19;;;;;;;13.63;5.68;;;;;;;7.86;98.16;101603.81;6097932;23;20070;-55
2022/11/05 07:57:49;;;;;;;14.52;6.05;;;;;;;7.87;98.28;101602.75;6097198;23;20026;-56
2022/11/05 08:00:19;;;;;;;11.15;5.28;;;;;;;7.90;99.13;101596.88;6096389;23;20019;-56
2022/11/05 08:03:06;;;;;;;10.45;5.13;;;;;;;7.93;99.04;101599.09;6096296;23;20014;-53
2022/11/05 08:05:38;;;;;;;15.73;5.80;;;;;;;7.96;98.96;101601.38;6097400;23;20081;-52
2022/11/05 08:08:07;;;;;;;10.52;4.90;;;;;;;8.00;98.84;101599.84;6097494;23;20387;-53
2022/11/05 08:10:35;;;;;;;12.00;5.28;;;;;;;8.03;99.02;101599.41;6096046;23;20014;-49
2022/11/05 08:13:03;;;;;;;8.98;4.97;;;;;;;8.07;99.22;101603.28;6097742;23;20025;-52
2022/11/05 08:15:31;;;;;;;10.88;5.22;;;;;;;8.06;99.50;101607.06;6096134;23;20093;-52
2022/11/05 08:18:01;;;;;;;13.18;5.30;;;;;;;8.05;99.25;101608.09;6097221;23;20022;-53
2022/11/05 08:20:30;;;;;;;13.63;6.43;;;;;;;8.07;99.55;101608.72;6097489;23;20030;-52
2022/11/05 08:22:58;;;;;;;12.80;5.32;;;;;;;8.08;99.39;101596.81;6096990;23;20081;-52
2022/11/05 08:25:26;;;;;;;11.73;5.70;;;;;;;8.10;99.62;101596.56;6095923;23;20101;-54
2022/11/05 08:28:00;;;;;;;16.20;5.90;;;;;;;8.10;100.00;101605.56;6097263;23;20029;-55
2022/11/05 08:30:28;;;;;;;14.23;6.28;;;;;;;8.13;100.00;101603.41;6098201;23;20335;-51
2022/11/05 08:33:07;;;;;;;13.07;6.53;;;;;;;8.17;100.00;101599.16;6097798;23;20050;-51
2022/11/05 08:35:36;;;;;;;13.68;6.03;;;;;;;8.19;100.00;101605.19;6097139;23;20050;-50
2022/11/05 08:38:05;;;;;;;11.88;5.90;;;;;;;8.18;100.00;101607.09;6096715;23;20029;-51
2022/11/05 08:40:34;;;;;;;11.90;6.07;;;;;;;8.20;100.00;101602.25;6096692;23;20022;-49
2022/11/05 08:43:03;;;;;;;12.90;5.90;;;;;;;8.19;100.00;101605.19;6095957;23;20030;-54
2022/11/05 08:45:31;;;;;;;13.25;6.65;;;;;;;8.21;100.00;101613.94;6097365;23;20026;-55
2022/11/05 08:47:59;;;;;;;10.60;6.10;;;;;;;8.25;100.00;101615.97;6096898;23;20463;-50
2022/11/05 08:50:27;;;;;;;14.48;5.70;;;;;;;8.26;100.00;101606.75;6096717;23;20348;-56
2022/11/05 08:52:55;;;;;;;13.88;6.32;;;;;;;8.29;100.00;101610.88;6098015;23;20074;-56
2022/11/05 08:55:23;;;;;;;11.13;5.75;;;;;;;8.33;100.00;101617.50;6096815;23;20018;-53
2022/11/05 08:58:05;;;;;;;13.35;7.10;;;;;;;8.35;100.00;101614.56;6096362;23;20014;-55
2022/11/05 09:00:34;;;;;;;13.30;7.07;;;;;;;8.35;100.00;101611.84;6097374;23;20069;-55
2022/11/05 09:03:04;;;;;;;13.55;6.78;;;;;;;8.36;100.00;101613.50;6095435;23;20325;-51
2022/11/05 09:05:36;;;;;;;13.70;6.40;;;;;;;8.36;100.00;101622.47;6097930;23;20018;-54
2022/11/05 09:08:16;;;;;;;10.82;5.70;;;;;;;8.38;100.00;101612.19;6096226;23;20026;-55
2022/11/05 09:10:44;;;;;;;35.92;19.38;;;;;;;8.40;100.00;101612.84;6096508;23;20696;-53
2022/11/05 09:13:12;;;;;;;16.67;9.73;;;;;;;8.43;100.00;101608.81;6095841;23;20451;-55
2022/11/05 09:15:47;;;;;;;14.50;7.18;;;;;;;8.45;100.00;101610.22;6096966;23;20103;-54
2022/11/05 09:18:15;;;;;;;12.20;7.07;;;;;;;8.46;100.00;101606.44;6095017;23;20022;-54
2022/11/05 09:20:43;;;;;;;15.05;6.88;;;;;;;8.50;100.00;101607.63;6095219;23;20376;-50
2022/11/05 09:23:13;;;;;;;13.05;7.63;;;;;;;8.54;100.00;101613.44;6096912;23;20392;-53
2022/11/05 09:25:42;;;;;;;16.00;7.28;;;;;;;8.57;100.00;101612.97;6095355;23;20026;-53
2022/11/05 09:28:15;;;;;;;12.63;6.03;;;;;;;8.59;100.00;101612.75;6096331;23;20018;-57
2022/11/05 09:30:45;;;;;;;14.80;6.65;;;;;;;8.66;100.00;101616.13;6096891;23;20018;-53
2022/11/05 09:33:13;;;;;;;12.30;6.28;;;;;;;8.69;100.00;101615.69;6097079;23;20018;-54
2022/11/05 09:35:41;;;;;;;14.35;5.93;;;;;;;8.70;100.00;101617.34;6096938;23;20022;-50
2022/11/05 09:38:09;;;;;;;13.00;6.30;;;;;;;8.71;100.00;101621.72;6096590;23;20019;-53
2022/11/05 09:40:44;;;;;;;11.23;6.10;;;;;;;8.70;100.00;101620.06;6096887;23;20023;-53
2022/11/05 09:43:19;;;;;;;11.90;6.28;;;;;;;8.71;100.00;101624.44;6095473;23;20506;-51
2022/11/05 09:45:50;;;;;;;13.83;6.30;;;;;;;8.73;100.00;101628.56;6096430;23;20078;-52
2022/11/05 09:48:21;;;;;;;13.48;5.82;;;;;;;8.80;100.00;101633.88;6097405;23;20338;-53
2022/11/05 09:50:50;;;;;;;12.48;5.90;;;;;;;8.82;100.00;101626.31;6096944;23;20018;-56
2022/11/05 09:53:19;;;;;;;14.38;6.43;;;;;;;8.84;100.00;101632.34;6096114;23;20026;-56
2022/11/05 09:55:50;;;;;;;11.35;5.40;;;;;;;8.85;100.00;101642.16;6071549;23;20022;-53
2022/11/05 09:58:33;;;;;;;10.98;6.10;;;;;;;8.85;100.00;101639.44;6096960;23;20054;-51
2022/11/05 10:01:03;;;;;;;14.85;6.57;;;;;;;8.87;100.00;101642.72;6097118;23;20023;-55
2022/11/05 10:03:47;;;;;;;26.27;7.13;;;;;;;8.91;100.00;101646.63;6096853;23;20018;-54
2022/11/05 10:06:21;;;;;;;16.02;6.72;;;;;;;8.96;100.00;101645.94;6095558;23;20029;-51
2022/11/05 10:09:02;;;;;;;11.60;5.93;;;;;;;9.00;100.00;101649.84;6095465;23;20459;-54
2022/11/05 10:11:40;;;;;;;13.40;6.00;;;;;;;9.03;100.00;101654.78;6097161;23;20030;-52
2022/11/05 10:14:14;;;;;;;12.45;5.68;;;;;;;9.07;100.00;101655.16;6095863;23;20033;-54
2022/11/05 10:16:44;;;;;;;13.45;5.68;;;;;;;9.11;100.00;101653.59;6096904;23;20360;-51
2022/11/05 10:19:23;;;;;;;13.30;6.80;;;;;;;9.18;100.00;101651.59;6097214;23;20029;-56
2022/11/05 10:22:01;;;;;;;13.05;5.30;;;;;;;9.24;100.00;101649.81;6095432;23;20085;-55
2022/11/05 10:24:33;;;;;;;14.82;5.60;;;;;;;9.28;100.00;101657.22;6094459;23;20029;-53
2022/11/05 10:27:01;;;;;;;13.32;5.80;;;;;;;9.29;100.00;101656.19;6095306;23;20089;-53
2022/11/05 10:29:32;;;;;;;16.30;6.25;;;;;;;9.31;100.00;101659.50;6094485;23;20025;-53
2022/11/05 10:32:04;;;;;;;12.00;5.55;;;;;;;9.33;100.00;101656.53;6096507;23;20073;-54
2022/11/05 10:34:34;;;;;;;11.07;5.82;;;;;;;9.33;100.00;101659.25;6096449;23;20522;-52
2022/11/05 10:37:03;;;;;;;14.70;6.07;;;;;;;9.34;100.00;101661.72;6096255;23;20018;-52
2022/11/05 10:39:31;;;;;;;17.77;9.70;;;;;;;9.36;100.00;101659.59;6098038;23;20347;-52
2022/11/05 10:42:21;;;;;;;11.95;5.70;;;;;;;9.37;100.00;101661.25;6095923;23;20108;-53
2022/11/05 10:45:12;;;;;;;13.40;5.97;;;;;;;9.39;100.00;101663.75;6094647;23;20025;-52
2022/11/05 10:48:15;;;;;;;10.38;5.70;;;;;;;9.42;100.00;101654.28;6095714;23;20077;-52
2022/11/05 10:50:43;;;;;;;20.15;6.10;;;;;;;9.43;100.00;101664.06;6084825;23;20026;-53
2022/11/05 10:53:15;;;;;;;11.85;5.25;;;;;;;9.46;100.00;101655.44;6094843;23;20075;-54
2022/11/05 10:55:48;;;;;;;11.80;5.15;;;;;;;9.47;100.00;101654.38;6094297;23;20014;-52
2022/11/05 10:58:16;;;;;;;14.52;6.18;;;;;;;9.49;100.00;101657.69;6096491;23;20022;-52
2022/11/05 11:01:05;;;;;;;14.55;5.88;;;;;;;9.48;100.00;101654.16;6095700;23;20066;-53
2022/11/05 11:03:40;;;;;;;16.45;5.50;;;;;;;9.52;100.00;101657.19;6095443;23;20022;-51
2022/11/05 11:06:34;;;;;;;11.57;5.78;;;;;;;9.53;99.80;101654.25;6096385;23;20023;-53
2022/11/05 11:09:06;;;;;;;13.68;5.18;;;;;;;9.54;98.80;101655.88;6097367;23;20030;-50
2022/11/05 11:11:39;;;;;;;10.38;4.70;;;;;;;9.55;98.84;101645.84;6095457;23;20022;-53
2022/11/05 11:14:13;;;;;;;13.70;5.32;;;;;;;9.56;99.10;101650.22;6095185;23;20026;-52
2022/11/05 11:16:46;;;;;;;10.88;5.60;;;;;;;9.62;99.62;101652.00;6096337;23;20027;-53
2022/11/05 11:19:30;;;;;;;14.10;5.90;;;;;;;9.63;98.39;101650.91;6097116;23;20019;-53
2022/11/05 11:22:03;;;;;;;11.23;5.47;;;;;;;9.61;97.54;101655.75;6095984;23;20360;-55
2022/11/05 11:24:38;;;;;;;10.80;4.80;;;;;;;9.62;97.70;101652.00;6096248;23;20364;-53
2022/11/05 11:27:14;;;;;;;10.43;5.05;;;;;;;9.63;97.55;101648.19;6095931;23;20101;-52
2022/11/05 11:29:44;;;;;;;12.57;5.40;;;;;;;9.63;97.57;101640.03;6094421;23;20077;-53
2022/11/05 11:32:18;;;;;;;15.05;5.65;;;;;;;9.65;97.98;101643.34;6091648;23;20494;-54
2022/11/05 11:34:49;;;;;;;12.45;5.40;;;;;;;9.68;98.31;101650.19;6100619;23;20045;-57
2022/11/05 11:37:30;;;;;;;11.38;5.82;;;;;;;9.68;98.44;101645.56;6100039;23;20354;-54
2022/11/05 11:40:05;;;;;;;12.43;5.30;;;;;;;9.69;98.37;101641.78;6102396;23;20014;-52
2022/11/05 11:42:34;;;;;;;12.05;5.75;;;;;;;9.70;98.24;101646.16;6100716;23;20019;-54
2022/11/05 11:45:33;;;;;;;13.73;5.95;;;;;;;9.70;98.23;101643.44;6074661;23;20018;-51
2022/11/05 11:48:03;;;;;;;10.95;5.57;;;;;;;9.74;98.12;101644.59;6060382;23;20026;-53
2022/11/05 11:50:37;;;;;;;11.93;6.40;;;;;;;9.75;98.15;101645.44;6094322;23;20506;-52
2022/11/05 11:53:20;;;;;;;14.68;6.05;;;;;;;9.75;98.27;101651.69;6094137;23;20085;-54
2022/11/05 11:56:15;;;;;;;12.15;5.90;;;;;;;9.75;98.06;101643.53;6095054;23;20351;-50
2022/11/05 11:58:45;;;;;;;14.55;6.40;;;;;;;9.77;98.38;101648.75;6100105;23;20026;-53
2022/11/05 12:01:47;;;;;;;11.40;6.03;;;;;;;9.78;98.52;101644.94;6102025;23;20078;-52
2022/11/05 12:04:40;;;;;;;11.15;6.20;;;;;;;9.79;98.68;101641.16;6102377;23;20050;-52
2022/11/05 12:07:37;;;;;;;14.90;5.53;;;;;;;9.84;99.22;101640.41;6094251;23;20078;-54
2022/11/05 12:10:15;;;;;;;10.73;4.47;;;;;;;10.15;100.00;101637.22;6093574;23;20027;-55
2022/11/05 12:13:15;;;;;;;10.65;4.60;;;;;;;10.30;100.00;101630.41;6094384;23;20022;-53
2022/11/05 12:15:53;;;;;;;9.30;4.57;;;;;;;10.28;100.00;101624.34;6093789;23;20033;-56
2022/11/05 12:18:48;;;;;;;10.57;4.35;;;;;;;10.48;100.00;101623.88;6093885;23;20068;-56
2022/11/05 12:21:35;;;;;;;12.75;4.85;;;;;;;10.45;100.00;101628.75;6094951;23;20026;-51
2022/11/05 12:24:38;;;;;;;12.02;4.82;;;;;;;10.52;100.00;101639.50;6094040;23;20039;-54
2022/11/05 12:27:23;;;;;;;;;;;;;;;10.46;100.00;101632.28;6095641;23;20030;-51
2022/11/05 12:29:57;;;;;;;9.05;4.38;;;;;;;10.36;100.00;101627.50;6094566;23;19917;-53
2022/11/05 12:32:43;;;;;;;8.60;4.05;;;;;;;10.42;100.00;101628.44;6094385;23;20030;-49
2022/11/05 12:35:48;;;;;;;10.77;4.00;;;;;;;10.39;100.00;101618.00;6094470;23;20098;-55
2022/11/05 12:38:48;;;;;;;11.88;4.55;;;;;;;10.59;100.00;101623.81;6094275;23;20105;-52